createdAt,value
2022-11-19T00:00:05.793Z,594.53
2022-11-19T00:01:05.797Z,595.03
2022-11-19T00:02:05.835Z,595.18
2022-11-19T00:03:05.823Z,593.73
2022-11-19T00:04:05.805Z,593.17
2022-11-19T00:05:05.801Z,592.99
2022-11-19T00:06:05.812Z,592.9
2022-11-19T00:07:05.886Z,593.3
2022-11-19T00:08:08.839Z,592.81
2022-11-19T00:09:05.815Z,592.82
2022-11-19T00:10:05.840Z,593
2022-11-19T00:11:09.435Z,593.06
2022-11-19T00:12:05.813Z,592.32
2022-11-19T00:13:05.821Z,592.54
2022-11-19T00:14:05.825Z,591.92
2022-11-19T00:15:05.840Z,592.18
2022-11-19T00:16:05.829Z,591.63
2022-11-19T00:17:05.826Z,591.8
2022-11-19T00:18:05.826Z,591.43
2022-11-19T00:19:05.832Z,592.34
2022-11-19T00:20:05.829Z,591.23
2022-11-19T00:21:05.826Z,591.98
2022-11-19T00:22:05.863Z,592.19
2022-11-19T00:23:05.828Z,592.78
2022-11-19T00:24:05.832Z,592.75
2022-11-19T00:25:05.838Z,594.24
2022-11-19T00:26:05.862Z,594.22
2022-11-19T00:27:05.846Z,594.08
2022-11-19T00:28:05.836Z,594.63
2022-11-19T00:29:05.853Z,594.41
2022-11-19T00:30:15.447Z,594.28
2022-11-19T00:31:05.849Z,594.85
2022-11-19T00:32:05.850Z,593.62
2022-11-19T00:33:05.844Z,593.33
2022-11-19T00:34:05.848Z,592.19
2022-11-19T00:35:05.852Z,591.38
2022-11-19T00:36:05.862Z,590.09
2022-11-19T00:37:05.858Z,589.76
2022-11-19T00:38:05.859Z,589.38
2022-11-19T00:39:05.855Z,590.52
2022-11-19T00:40:05.855Z,589.85
2022-11-19T00:41:05.891Z,590.16
2022-11-19T00:42:05.891Z,589.65
2022-11-19T00:43:05.869Z,589.71
2022-11-19T00:44:05.863Z,589.87
2022-11-19T00:45:05.864Z,588.9
2022-11-19T00:46:05.867Z,589.57
2022-11-19T00:47:05.875Z,588.45
2022-11-19T00:48:05.871Z,588.03
2022-11-19T00:49:05.871Z,588.29
2022-11-19T00:50:05.879Z,587.75
2022-11-19T00:51:05.881Z,586.68
2022-11-19T00:52:05.880Z,586.26
2022-11-19T00:53:05.876Z,585.2
2022-11-19T00:54:05.882Z,583.35
2022-11-19T00:55:05.880Z,582.22
2022-11-19T00:56:05.898Z,581.14
2022-11-19T00:57:05.889Z,579.14
2022-11-19T00:58:05.918Z,577.12
2022-11-19T00:59:05.886Z,575.07
2022-11-19T01:00:05.890Z,572.05
2022-11-19T01:01:05.963Z,570.13
2022-11-19T01:02:05.889Z,567.65
2022-11-19T01:03:05.904Z,564.9
2022-11-19T01:04:05.899Z,562.9
2022-11-19T01:05:05.898Z,561.84
2022-11-19T01:06:05.904Z,559.54
2022-11-19T01:07:05.961Z,557.02
2022-11-19T01:08:05.956Z,554.77
2022-11-19T01:09:05.900Z,553
2022-11-19T01:10:05.909Z,551.65
2022-11-19T01:11:05.909Z,549.82
2022-11-19T01:12:05.907Z,548.62
2022-11-19T01:13:05.906Z,548.19
2022-11-19T01:14:06.141Z,547.65
2022-11-19T01:15:05.909Z,546.59
2022-11-19T01:16:05.917Z,546.48
2022-11-19T01:17:05.920Z,546.05
2022-11-19T01:18:05.921Z,544.94
2022-11-19T01:19:05.918Z,544.18
2022-11-19T01:20:05.968Z,544.01
2022-11-19T01:21:05.920Z,542.9
2022-11-19T01:22:05.930Z,541.58
2022-11-19T01:23:05.923Z,540
2022-11-19T01:24:05.930Z,538.71
2022-11-19T01:25:05.925Z,537.14
2022-11-19T01:26:05.929Z,536.4
2022-11-19T01:27:05.935Z,534.9
2022-11-19T01:28:05.937Z,533.54
2022-11-19T01:29:05.931Z,531.76
2022-11-19T01:30:05.985Z,528.88
2022-11-19T01:31:05.943Z,526.79
2022-11-19T01:32:05.944Z,524.68
2022-11-19T01:33:05.948Z,523.38
2022-11-19T01:34:05.951Z,522
2022-11-19T01:35:05.965Z,519.9
2022-11-19T01:36:05.950Z,518.61
2022-11-19T01:37:05.954Z,517.85
2022-11-19T01:38:05.953Z,516.02
2022-11-19T01:39:05.953Z,515.29
2022-11-19T01:40:06.402Z,513.3
2022-11-19T01:41:05.955Z,512.73
2022-11-19T01:42:06.020Z,510.99
2022-11-19T01:43:05.955Z,510.15
2022-11-19T01:44:05.964Z,508.92
2022-11-19T01:45:05.981Z,507.75
2022-11-19T01:46:05.992Z,506.75
2022-11-19T01:47:05.961Z,506.22
2022-11-19T01:48:05.978Z,505.05
2022-11-19T01:49:05.983Z,505.05
2022-11-19T01:50:05.999Z,504.62
2022-11-19T01:51:08.973Z,504.24
2022-11-19T01:52:05.970Z,503.45
2022-11-19T01:53:05.976Z,503.67
2022-11-19T01:54:05.975Z,502.27
2022-11-19T01:55:05.997Z,503.21
2022-11-19T01:56:05.980Z,502.46
2022-11-19T01:57:05.984Z,502.69
2022-11-19T01:58:05.982Z,502.1
2022-11-19T01:59:06.030Z,501.41
2022-11-19T02:00:06.014Z,500.82
2022-11-19T02:01:06.013Z,500.03
2022-11-19T02:02:07.116Z,500.03
2022-11-19T02:03:05.986Z,499.1
2022-11-19T02:04:05.993Z,498.37
2022-11-19T02:05:06.012Z,497.36
2022-11-19T02:06:05.998Z,496.86
2022-11-19T02:07:06.028Z,496.73
2022-11-19T02:08:05.993Z,497.13
2022-11-19T02:09:06.016Z,495.97
2022-11-19T02:10:06.024Z,495.92
2022-11-19T02:11:06.009Z,495.68
2022-11-19T02:12:06.005Z,495.49
2022-11-19T02:13:09.165Z,495.68
2022-11-19T02:14:06.010Z,495.88
2022-11-19T02:15:06.024Z,496.5
2022-11-19T02:16:06.019Z,497.22
2022-11-19T02:17:06.009Z,496.79
2022-11-19T02:18:06.041Z,496.8
2022-11-19T02:19:06.016Z,498.63
2022-11-19T02:20:06.045Z,498.49
2022-11-19T02:21:06.029Z,498.66
2022-11-19T02:22:06.023Z,498.51
2022-11-19T02:23:06.024Z,498.73
2022-11-19T02:24:08.860Z,498.13
2022-11-19T02:25:06.049Z,497.63
2022-11-19T02:26:06.024Z,498.59
2022-11-19T02:27:06.033Z,498.16
2022-11-19T02:28:06.033Z,499.01
2022-11-19T02:29:06.045Z,499.67
2022-11-19T02:30:06.056Z,499.42
2022-11-19T02:31:06.029Z,500.26
2022-11-19T02:32:06.033Z,500.21
2022-11-19T02:33:06.090Z,500.2
2022-11-19T02:34:06.060Z,499.96
2022-11-19T02:35:06.156Z,500.46
2022-11-19T02:36:06.044Z,499.75
2022-11-19T02:37:06.041Z,499.13
2022-11-19T02:38:06.043Z,499.52
2022-11-19T02:39:06.047Z,499.47
2022-11-19T02:40:06.068Z,499.65
2022-11-19T02:41:06.053Z,500.09
2022-11-19T02:42:06.049Z,501.12
2022-11-19T02:43:06.055Z,501.38
2022-11-19T02:44:06.050Z,500.35
2022-11-19T02:45:06.073Z,500.51
2022-11-19T02:46:06.059Z,500.51
2022-11-19T02:47:06.063Z,500.93
2022-11-19T02:48:06.065Z,501.14
2022-11-19T02:49:06.067Z,501.68
2022-11-19T02:50:06.115Z,502.68
2022-11-19T02:51:06.069Z,502.45
2022-11-19T02:52:06.095Z,503.06
2022-11-19T02:53:06.081Z,503.63
2022-11-19T02:54:06.067Z,504.29
2022-11-19T02:55:06.094Z,504.86
2022-11-19T02:56:06.079Z,505.23
2022-11-19T02:57:06.076Z,506.24
2022-11-19T02:58:06.072Z,506.26
2022-11-19T02:59:06.112Z,506.99
2022-11-19T03:00:06.107Z,507.39
2022-11-19T03:01:06.151Z,508.18
2022-11-19T03:02:06.091Z,508.48
2022-11-19T03:03:06.079Z,509.16
2022-11-19T03:04:06.082Z,508.51
2022-11-19T03:05:06.111Z,508.33
2022-11-19T03:06:06.119Z,508.25
2022-11-19T03:07:06.190Z,507.68
2022-11-19T03:08:06.097Z,506.55
2022-11-19T03:09:06.091Z,505.72
2022-11-19T03:10:06.120Z,505.13
2022-11-19T03:11:06.091Z,505.44
2022-11-19T03:12:06.093Z,505.73
2022-11-19T03:13:06.102Z,505.55
2022-11-19T03:14:06.103Z,505.45
2022-11-19T03:15:06.127Z,504.97
2022-11-19T03:16:06.107Z,504.86
2022-11-19T03:17:06.109Z,504.4
2022-11-19T03:18:06.163Z,503.78
2022-11-19T03:19:06.116Z,503.42
2022-11-19T03:20:06.164Z,502.88
2022-11-19T03:21:06.110Z,502.02
2022-11-19T03:22:06.159Z,501.39
2022-11-19T03:23:06.119Z,501.26
2022-11-19T03:24:06.119Z,500.79
2022-11-19T03:25:06.148Z,500.09
2022-11-19T03:26:06.117Z,500.66
2022-11-19T03:27:06.120Z,501.47
2022-11-19T03:28:06.118Z,501.05
2022-11-19T03:29:06.123Z,502.24
2022-11-19T03:30:06.282Z,503.06
2022-11-19T03:31:06.124Z,503.88
2022-11-19T03:32:06.126Z,504.9
2022-11-19T03:33:06.133Z,505.12
2022-11-19T03:34:06.136Z,505.73
2022-11-19T03:35:06.163Z,506.12
2022-11-19T03:36:06.132Z,506.4
2022-11-19T03:37:06.139Z,507.85
2022-11-19T03:38:06.167Z,507.95
2022-11-19T03:39:06.139Z,509.34
2022-11-19T03:40:06.170Z,508.93
2022-11-19T03:41:06.149Z,509.76
2022-11-19T03:42:06.152Z,509.34
2022-11-19T03:43:06.178Z,509.8
2022-11-19T03:44:06.147Z,509.67
2022-11-19T03:45:06.173Z,509.63
2022-11-19T03:46:06.149Z,509.08
2022-11-19T03:47:06.158Z,508.73
2022-11-19T03:48:06.159Z,508.57
2022-11-19T03:49:06.159Z,507.43
2022-11-19T03:50:06.188Z,508.09
2022-11-19T03:51:06.153Z,508.31
2022-11-19T03:52:06.157Z,507.72
2022-11-19T03:53:06.197Z,507.55
2022-11-19T03:54:06.190Z,506.97
2022-11-19T03:55:06.191Z,506.14
2022-11-19T03:56:06.172Z,506.79
2022-11-19T03:57:06.168Z,506.8
2022-11-19T03:58:06.182Z,507.06
2022-11-19T03:59:08.328Z,507.41
2022-11-19T04:00:06.198Z,508.43
2022-11-19T04:01:06.179Z,508.95
2022-11-19T04:02:06.211Z,509.89
2022-11-19T04:03:06.199Z,511.49
2022-11-19T04:04:06.186Z,510.83
2022-11-19T04:05:06.203Z,510.91
2022-11-19T04:06:06.185Z,509.7
2022-11-19T04:07:06.205Z,508.77
2022-11-19T04:08:06.189Z,508.21
2022-11-19T04:09:06.181Z,507.56
2022-11-19T04:10:06.236Z,506.37
2022-11-19T04:12:06.196Z,504.25
2022-11-19T04:13:06.186Z,503.25
2022-11-19T04:14:06.201Z,501.48
2022-11-19T04:15:06.216Z,500.05
2022-11-19T04:16:06.196Z,499.34
2022-11-19T04:17:06.201Z,498.56
2022-11-19T04:18:09.335Z,498.88
2022-11-19T04:19:06.198Z,497.56
2022-11-19T04:20:06.245Z,497.23
2022-11-19T04:21:06.205Z,495.77
2022-11-19T04:22:06.205Z,495.86
2022-11-19T04:23:06.227Z,495.2
2022-11-19T04:24:06.207Z,496.4
2022-11-19T04:25:06.243Z,495.82
2022-11-19T04:26:06.239Z,496.26
2022-11-19T04:27:06.217Z,496.48
2022-11-19T04:28:06.384Z,497.93
2022-11-19T04:29:07.328Z,497.66
2022-11-19T04:30:06.244Z,499.02
2022-11-19T04:31:06.217Z,498.86
2022-11-19T04:32:06.257Z,498.35
2022-11-19T04:33:06.228Z,498.52
2022-11-19T04:34:06.231Z,498.6
2022-11-19T04:35:06.260Z,497.59
2022-11-19T04:36:06.230Z,497.61
2022-11-19T04:37:06.231Z,497.47
2022-11-19T04:38:06.232Z,497.66
2022-11-19T04:39:06.287Z,497.45
2022-11-19T04:40:08.818Z,497.7
2022-11-19T04:41:06.241Z,497.55
2022-11-19T04:42:06.292Z,498.27
2022-11-19T04:43:06.236Z,498.71
2022-11-19T04:44:06.238Z,498.04
2022-11-19T04:45:06.241Z,498.48
2022-11-19T04:46:06.240Z,498.37
2022-11-19T04:47:06.248Z,499.6
2022-11-19T04:48:06.252Z,499.5
2022-11-19T04:49:06.254Z,500.34
2022-11-19T04:50:06.255Z,501
2022-11-19T04:51:09.010Z,501.12
2022-11-19T04:52:06.253Z,501.72
2022-11-19T04:53:06.258Z,501.95
2022-11-19T04:54:06.255Z,501.41
2022-11-19T04:55:06.258Z,500.66
2022-11-19T04:56:06.270Z,500.49
2022-11-19T04:57:06.269Z,501.09
2022-11-19T04:58:06.291Z,500.12
2022-11-19T04:59:06.260Z,499.92
2022-11-19T05:00:06.274Z,499.71
2022-11-19T05:01:06.323Z,500.48
2022-11-19T05:02:06.271Z,500.29
2022-11-19T05:03:06.289Z,499.25
2022-11-19T05:04:06.267Z,499.69
2022-11-19T05:05:06.277Z,499.64
2022-11-19T05:06:06.271Z,499.5
2022-11-19T05:07:06.316Z,500.45
2022-11-19T05:08:06.279Z,499.84
2022-11-19T05:09:06.274Z,499.83
2022-11-19T05:10:06.276Z,499.84
2022-11-19T05:11:06.289Z,500.6
2022-11-19T05:12:06.290Z,500.78
2022-11-19T05:13:06.292Z,501.12
2022-11-19T05:14:06.317Z,502.09
2022-11-19T05:15:06.309Z,502.33
2022-11-19T05:16:06.290Z,502.86
2022-11-19T05:17:06.296Z,502.24
2022-11-19T05:18:06.291Z,502.86
2022-11-19T05:19:06.294Z,503.63
2022-11-19T05:20:06.299Z,504.43
2022-11-19T05:21:06.319Z,504.48
2022-11-19T05:22:06.302Z,505.09
2022-11-19T05:23:06.299Z,505.28
2022-11-19T05:24:06.308Z,505.9
2022-11-19T05:25:06.303Z,506.29
2022-11-19T05:26:06.307Z,507.42
2022-11-19T05:27:06.321Z,507.42
2022-11-19T05:28:06.310Z,507.63
2022-11-19T05:29:06.314Z,507.59
2022-11-19T05:30:06.332Z,507.59
2022-11-19T05:31:06.319Z,507.99
2022-11-19T05:32:06.316Z,507.74
2022-11-19T05:33:06.328Z,508.17
2022-11-19T05:34:06.314Z,509.23
2022-11-19T05:35:06.326Z,509.36
2022-11-19T05:36:06.324Z,510.17
2022-11-19T05:37:06.325Z,510.07
2022-11-19T05:38:06.324Z,511.07
2022-11-19T05:39:06.337Z,512.22
2022-11-19T05:40:06.331Z,513.03
2022-11-19T05:41:06.334Z,513.36
2022-11-19T05:42:06.332Z,514.18
2022-11-19T05:43:06.335Z,513.77
2022-11-19T05:44:06.332Z,514.64
2022-11-19T05:45:06.338Z,514.52
2022-11-19T05:46:06.362Z,513.7
2022-11-19T05:47:06.339Z,513.92
2022-11-19T05:48:06.343Z,514.35
2022-11-19T05:49:06.338Z,514.09
2022-11-19T05:50:06.346Z,514.6
2022-11-19T05:51:06.352Z,514
2022-11-19T05:52:06.344Z,513.17
2022-11-19T05:53:06.345Z,513.75
2022-11-19T05:54:06.429Z,514.17
2022-11-19T05:55:06.357Z,514.28
2022-11-19T05:56:06.356Z,515.06
2022-11-19T05:57:06.365Z,514.51
2022-11-19T05:58:06.356Z,514.53
2022-11-19T05:59:06.354Z,514.96
2022-11-19T06:00:06.364Z,515.43
2022-11-19T06:01:06.362Z,515.4
2022-11-19T06:02:06.392Z,514.73
2022-11-19T06:03:06.465Z,514.48
2022-11-19T06:04:06.371Z,514.41
2022-11-19T06:05:06.376Z,513.52
2022-11-19T06:06:06.371Z,513.85
2022-11-19T06:07:06.430Z,513.66
2022-11-19T06:08:06.404Z,513.63
2022-11-19T06:09:06.379Z,513.94
2022-11-19T06:10:06.373Z,514.58
2022-11-19T06:11:06.382Z,514.92
2022-11-19T06:12:06.376Z,515.51
2022-11-19T06:13:06.384Z,515.99
2022-11-19T06:14:06.385Z,516.11
2022-11-19T06:15:06.381Z,517.34
2022-11-19T06:16:06.412Z,517.77
2022-11-19T06:17:06.386Z,517.59
2022-11-19T06:18:06.429Z,517.99
2022-11-19T06:19:06.393Z,518.01
2022-11-19T06:20:06.385Z,518.3
2022-11-19T06:21:10.946Z,518.66
2022-11-19T06:22:06.397Z,518.83
2022-11-19T06:23:06.392Z,518.78
2022-11-19T06:24:06.395Z,519.2
2022-11-19T06:25:06.396Z,520.32
2022-11-19T06:26:06.403Z,520.08
2022-11-19T06:27:06.406Z,520.05
2022-11-19T06:28:06.431Z,520.54
2022-11-19T06:29:06.405Z,520.95
2022-11-19T06:30:06.411Z,521.15
2022-11-19T06:31:06.406Z,521.17
2022-11-19T06:32:06.406Z,521.75
2022-11-19T06:33:06.416Z,522.01
2022-11-19T06:34:06.508Z,521.19
2022-11-19T06:35:06.412Z,521.82
2022-11-19T06:36:06.413Z,521.52
2022-11-19T06:37:06.417Z,521.12
2022-11-19T06:38:06.422Z,521.06
2022-11-19T06:39:06.421Z,520.66
2022-11-19T06:40:06.427Z,520.47
2022-11-19T06:41:06.440Z,520.9
2022-11-19T06:42:06.424Z,520.37
2022-11-19T06:43:06.431Z,520.02
2022-11-19T06:44:06.426Z,519.1
2022-11-19T06:45:09.214Z,519.49
2022-11-19T06:46:06.437Z,518.58
2022-11-19T06:47:06.439Z,518.76
2022-11-19T06:48:06.431Z,518.71
2022-11-19T06:49:06.443Z,517.79
2022-11-19T06:50:06.470Z,517.73
2022-11-19T06:51:06.466Z,517.79
2022-11-19T06:52:06.435Z,518.14
2022-11-19T06:53:06.449Z,518.96
2022-11-19T06:54:06.454Z,519.34
2022-11-19T06:55:06.448Z,520.52
2022-11-19T06:56:07.838Z,520.97
2022-11-19T06:57:06.453Z,519.96
2022-11-19T06:58:06.446Z,520.4
2022-11-19T06:59:06.447Z,519.84
2022-11-19T07:00:06.459Z,518.66
2022-11-19T07:01:06.449Z,518.45
2022-11-19T07:02:06.619Z,516.9
2022-11-19T07:03:06.458Z,516.17
2022-11-19T07:04:06.454Z,514.6
2022-11-19T07:05:06.463Z,513.73
2022-11-19T07:06:06.492Z,512.59
2022-11-19T07:07:09.431Z,511.95
2022-11-19T07:08:06.473Z,510.23
2022-11-19T07:09:06.465Z,510.96
2022-11-19T07:10:06.467Z,510.6
2022-11-19T07:11:06.468Z,511.83
2022-11-19T07:12:06.475Z,512.9
2022-11-19T07:13:06.477Z,512.26
2022-11-19T07:14:06.470Z,512.82
2022-11-19T07:15:06.482Z,513.58
2022-11-19T07:16:06.474Z,515
2022-11-19T07:17:06.479Z,515.24
2022-11-19T07:18:09.558Z,516.11
2022-11-19T07:19:06.487Z,516.75
2022-11-19T07:20:06.486Z,517.07
2022-11-19T07:21:06.481Z,518.86
2022-11-19T07:22:06.518Z,519.37
2022-11-19T07:23:06.484Z,520.88
2022-11-19T07:24:06.493Z,520.56
2022-11-19T07:25:06.492Z,520.9
2022-11-19T07:26:06.500Z,521.46
2022-11-19T07:27:06.491Z,522.26
2022-11-19T07:28:06.498Z,522.85
2022-11-19T07:29:13.707Z,523.99
2022-11-19T07:30:06.498Z,524.63
2022-11-19T07:31:06.503Z,524.63
2022-11-19T07:32:06.507Z,524.22
2022-11-19T07:33:06.509Z,523.05
2022-11-19T07:34:06.502Z,522.42
2022-11-19T07:35:06.511Z,520.14
2022-11-19T07:36:06.512Z,519.54
2022-11-19T07:37:06.509Z,518.56
2022-11-19T07:38:06.535Z,516.59
2022-11-19T07:39:06.519Z,515.61
2022-11-19T07:40:06.513Z,515.05
2022-11-19T07:41:06.514Z,513.12
2022-11-19T07:42:06.516Z,511.4
2022-11-19T07:43:06.527Z,511.61
2022-11-19T07:44:06.526Z,510.02
2022-11-19T07:45:06.530Z,509.06
2022-11-19T07:46:06.524Z,508.68
2022-11-19T07:47:06.539Z,507.92
2022-11-19T07:48:06.533Z,507.77
2022-11-19T07:49:06.539Z,507.39
2022-11-19T07:50:06.532Z,506.38
2022-11-19T07:51:06.556Z,506.03
2022-11-19T07:52:06.543Z,503.98
2022-11-19T07:53:06.544Z,502.41
2022-11-19T07:54:06.566Z,501.24
2022-11-19T07:55:06.543Z,499.58
2022-11-19T07:56:06.547Z,499.16
2022-11-19T07:57:06.545Z,498.39
2022-11-19T07:58:06.547Z,497.78
2022-11-19T07:59:06.552Z,495.66
2022-11-19T08:00:06.560Z,494.35
2022-11-19T08:01:06.554Z,493.4
2022-11-19T08:02:06.609Z,492.12
2022-11-19T08:03:06.567Z,491
2022-11-19T08:04:06.562Z,490.24
2022-11-19T08:05:06.551Z,489.69
2022-11-19T08:06:06.567Z,489.5
2022-11-19T08:07:06.627Z,488.56
2022-11-19T08:08:06.585Z,488.5
2022-11-19T08:09:06.577Z,487.94
2022-11-19T08:10:06.581Z,487.87
2022-11-19T08:11:06.561Z,486.86
2022-11-19T08:12:06.570Z,487.59
2022-11-19T08:13:06.569Z,486.94
2022-11-19T08:14:06.567Z,487.78
2022-11-19T08:15:06.571Z,488.02
2022-11-19T08:16:06.567Z,488.65
2022-11-19T08:17:06.580Z,488.04
2022-11-19T08:18:06.574Z,487.89
2022-11-19T08:19:06.573Z,487.9
2022-11-19T08:20:06.579Z,487.49
2022-11-19T08:21:06.583Z,486.9
2022-11-19T08:22:06.584Z,487.1
2022-11-19T08:23:06.586Z,486.84
2022-11-19T08:24:06.579Z,486.51
2022-11-19T08:25:06.581Z,486.54
2022-11-19T08:26:06.686Z,486.16
2022-11-19T08:27:06.590Z,486.02
2022-11-19T08:28:06.598Z,485.77
2022-11-19T08:29:08.517Z,484.57
2022-11-19T08:30:06.603Z,484.7
2022-11-19T08:31:06.597Z,483.27
2022-11-19T08:32:06.592Z,482.11
2022-11-19T08:33:06.601Z,480.28
2022-11-19T08:34:06.603Z,479.95
2022-11-19T08:35:06.597Z,476.99
2022-11-19T08:36:06.597Z,475.08
2022-11-19T08:37:06.602Z,473.5
2022-11-19T08:38:06.607Z,472.5
2022-11-19T08:39:06.603Z,472.24
2022-11-19T08:40:06.610Z,472.32
2022-11-19T08:41:06.608Z,472.5
2022-11-19T08:42:06.650Z,472.88
2022-11-19T08:43:06.624Z,473.3
2022-11-19T08:44:06.616Z,474.67
2022-11-19T08:45:06.612Z,476.52
2022-11-19T08:46:06.626Z,477.33
2022-11-19T08:47:06.618Z,478.59
2022-11-19T08:48:06.624Z,479.62
2022-11-19T08:49:06.634Z,480.16
2022-11-19T08:50:06.623Z,480.37
2022-11-19T08:51:06.623Z,481.35
2022-11-19T08:52:06.625Z,482.35
2022-11-19T08:53:06.634Z,483.95
2022-11-19T08:54:06.631Z,483.54
2022-11-19T08:55:06.635Z,483.92
2022-11-19T08:56:06.628Z,485.07
2022-11-19T08:57:06.643Z,484.98
2022-11-19T08:58:06.662Z,486.01
2022-11-19T08:59:06.633Z,487.08
2022-11-19T09:00:06.800Z,487.31
2022-11-19T09:01:06.699Z,487.67
2022-11-19T09:02:06.671Z,488.12
2022-11-19T09:03:06.649Z,488.65
2022-11-19T09:04:06.658Z,488.75
2022-11-19T09:05:08.665Z,488.87
2022-11-19T09:06:06.652Z,489.57
2022-11-19T09:07:06.729Z,489.99
2022-11-19T09:08:06.657Z,489.82
2022-11-19T09:09:06.664Z,489.27
2022-11-19T09:10:06.660Z,488.44
2022-11-19T09:11:06.653Z,487.85
2022-11-19T09:12:06.906Z,487.42
2022-11-19T09:13:06.664Z,487.58
2022-11-19T09:14:06.680Z,488.57
2022-11-19T09:15:06.658Z,490.21
2022-11-19T09:16:06.662Z,493.41
2022-11-19T09:17:06.669Z,493.33
2022-11-19T09:18:06.677Z,494.93
2022-11-19T09:19:06.674Z,495.13
2022-11-19T09:20:06.674Z,495.74
2022-11-19T09:21:06.673Z,495.85
2022-11-19T09:22:06.680Z,496.77
2022-11-19T09:23:09.477Z,496.36
2022-11-19T09:24:06.687Z,496.82
2022-11-19T09:25:06.684Z,497.35
2022-11-19T09:26:06.678Z,497.98
2022-11-19T09:27:06.677Z,498.78
2022-11-19T09:28:06.683Z,499.56
2022-11-19T09:29:06.679Z,499.77
2022-11-19T09:30:07.193Z,499.7
2022-11-19T09:31:06.693Z,499.22
2022-11-19T09:32:06.685Z,499.3
2022-11-19T09:33:06.688Z,499.13
2022-11-19T09:34:09.449Z,499.22
2022-11-19T09:35:06.701Z,497.91
2022-11-19T09:36:06.699Z,497.31
2022-11-19T09:37:06.694Z,496.76
2022-11-19T09:38:06.699Z,495.41
2022-11-19T09:39:06.704Z,493.24
2022-11-19T09:40:06.699Z,491.47
2022-11-19T09:41:06.706Z,489.87
2022-11-19T09:42:06.700Z,489.22
2022-11-19T09:43:07.772Z,489.25
2022-11-19T09:44:06.728Z,489.68
2022-11-19T09:45:09.495Z,489.66
2022-11-19T09:46:06.710Z,489.75
2022-11-19T09:47:06.721Z,489.72
2022-11-19T09:48:06.714Z,488.75
2022-11-19T09:49:06.721Z,487.57
2022-11-19T09:50:06.728Z,487.18
2022-11-19T09:51:06.727Z,486.31
2022-11-19T09:52:06.720Z,486.3
2022-11-19T09:53:06.716Z,485.5
2022-11-19T09:54:06.726Z,485.69
2022-11-19T09:55:06.729Z,484.54
2022-11-19T09:56:09.879Z,483.56
2022-11-19T09:57:06.729Z,483.39
2022-11-19T09:58:06.725Z,482.2
2022-11-19T09:59:06.735Z,481.85
2022-11-19T10:00:06.737Z,480.95
2022-11-19T10:01:06.771Z,481.03
2022-11-19T10:02:06.739Z,480.51
2022-11-19T10:03:06.750Z,480.53
2022-11-19T10:04:06.740Z,481.06
2022-11-19T10:05:06.746Z,480.77
2022-11-19T10:06:06.737Z,482.2
2022-11-19T10:07:09.627Z,483.44
2022-11-19T10:08:06.743Z,483.77
2022-11-19T10:09:06.750Z,485.16
2022-11-19T10:10:12.017Z,485.99
2022-11-19T10:11:06.758Z,487.54
2022-11-19T10:12:06.751Z,489.14
2022-11-19T10:13:06.750Z,490.29
2022-11-19T10:14:06.752Z,491.62
2022-11-19T10:15:06.760Z,493.98
2022-11-19T10:16:06.757Z,495.38
2022-11-19T10:17:06.777Z,497.35
2022-11-19T10:18:06.769Z,498.94
2022-11-19T10:19:06.768Z,498.78
2022-11-19T10:20:06.759Z,498.77
2022-11-19T10:21:06.761Z,498.98
2022-11-19T10:22:06.771Z,499.41
2022-11-19T10:23:06.767Z,499.8
2022-11-19T10:24:06.773Z,499.17
2022-11-19T10:25:06.766Z,498.77
2022-11-19T10:26:06.774Z,497.4
2022-11-19T10:27:08.702Z,496.05
2022-11-19T10:28:06.774Z,493.66
2022-11-19T10:29:06.776Z,493.43
2022-11-19T10:30:06.777Z,494.44
2022-11-19T10:31:06.778Z,495.08
2022-11-19T10:32:06.780Z,494.84
2022-11-19T10:33:06.804Z,494.86
2022-11-19T10:34:06.787Z,495.01
2022-11-19T10:35:06.786Z,495.47
2022-11-19T10:36:06.791Z,495.38
2022-11-19T10:37:06.786Z,495.15
2022-11-19T10:38:06.793Z,495.1
2022-11-19T10:39:06.790Z,493.65
2022-11-19T10:40:06.791Z,493.59
2022-11-19T10:41:06.793Z,492.3
2022-11-19T10:42:06.797Z,493.18
2022-11-19T10:43:06.797Z,493.43
2022-11-19T10:44:06.803Z,492.98
2022-11-19T10:45:06.812Z,493.67
2022-11-19T10:46:06.812Z,494.09
2022-11-19T10:47:06.803Z,494.9
2022-11-19T10:48:09.295Z,494.88
2022-11-19T10:49:06.835Z,495.93
2022-11-19T10:50:11.072Z,496.48
2022-11-19T10:51:06.833Z,497.21
2022-11-19T10:52:06.817Z,498.77
2022-11-19T10:53:06.819Z,498.53
2022-11-19T10:54:06.820Z,499.33
2022-11-19T10:55:06.822Z,500.24
2022-11-19T10:56:06.819Z,501.05
2022-11-19T10:57:06.821Z,501.66
2022-11-19T10:58:06.829Z,501.83
2022-11-19T10:59:06.822Z,500.97
2022-11-19T11:00:06.830Z,500.38
2022-11-19T11:01:06.861Z,499.6
2022-11-19T11:02:06.827Z,498.77
2022-11-19T11:03:06.835Z,498.22
2022-11-19T11:04:06.843Z,497.17
2022-11-19T11:05:06.859Z,497.77
2022-11-19T11:06:06.841Z,497.14
2022-11-19T11:07:06.903Z,497.73
2022-11-19T11:08:06.835Z,498.75
2022-11-19T11:09:06.843Z,498.95
2022-11-19T11:10:06.842Z,499.73
2022-11-19T11:11:06.850Z,499.45
2022-11-19T11:12:06.842Z,500
2022-11-19T11:13:06.849Z,499.69
2022-11-19T11:14:06.843Z,500.34
2022-11-19T11:15:06.852Z,501.86
2022-11-19T11:16:06.854Z,501.95
2022-11-19T11:17:06.856Z,503.91
2022-11-19T11:18:06.908Z,506.46
2022-11-19T11:19:06.863Z,507.79
2022-11-19T11:20:06.860Z,508.74
2022-11-19T11:21:06.883Z,510.47
2022-11-19T11:22:06.863Z,511.19
2022-11-19T11:23:06.890Z,512.03
2022-11-19T11:24:06.863Z,513.81
2022-11-19T11:25:07.563Z,513.73
2022-11-19T11:26:06.863Z,515.9
2022-11-19T11:27:06.875Z,517.09
2022-11-19T11:28:06.913Z,518.29
2022-11-19T11:29:06.873Z,518.06
2022-11-19T11:30:06.869Z,518.69
2022-11-19T11:31:06.879Z,518.69
2022-11-19T11:32:06.875Z,519.43
2022-11-19T11:33:08.868Z,519.1
2022-11-19T11:34:06.878Z,519.24
2022-11-19T11:35:09.107Z,519.27
2022-11-19T11:36:06.883Z,518.91
2022-11-19T11:37:06.925Z,519.59
2022-11-19T11:38:06.913Z,521.04
2022-11-19T11:39:06.973Z,521.17
2022-11-19T11:40:06.889Z,521.57
2022-11-19T11:42:18.658Z,522
2022-11-19T11:43:18.665Z,521.21
2022-11-19T11:44:18.653Z,519.53
2022-11-19T11:45:18.724Z,519.03
2022-11-19T11:46:18.650Z,517.76
2022-11-19T11:47:18.649Z,516.72
2022-11-19T11:48:18.688Z,516.41
2022-11-19T11:49:18.648Z,515.56
2022-11-19T11:50:18.661Z,514.8
2022-11-19T11:51:18.711Z,512.9
2022-11-19T11:52:18.676Z,512.26
2022-11-19T11:53:18.681Z,511.12
2022-11-19T11:54:18.780Z,510.68
2022-11-19T11:55:18.695Z,511.27
2022-11-19T11:56:18.665Z,511.96
2022-11-19T11:57:18.661Z,511.99
2022-11-19T11:58:18.689Z,512.25
2022-11-19T11:59:18.956Z,512.89
2022-11-19T12:00:18.672Z,512.73
2022-11-19T12:01:18.678Z,512.92
2022-11-19T12:02:21.747Z,512.94
2022-11-19T12:03:18.701Z,512.74
2022-11-19T12:04:18.677Z,513.05
2022-11-19T12:05:18.687Z,512.24
2022-11-19T12:06:18.684Z,512.09
2022-11-19T12:07:18.755Z,511.32
2022-11-19T12:08:21.705Z,511.46
2022-11-19T12:09:19.040Z,510.11
2022-11-19T12:10:18.680Z,509.92
2022-11-19T12:11:18.683Z,509.25
2022-11-19T12:12:18.696Z,508.53
2022-11-19T12:13:19.999Z,507.14
2022-11-19T12:14:18.690Z,505.84
2022-11-19T12:15:18.699Z,505.74
2022-11-19T12:16:18.699Z,504.53
2022-11-19T12:17:18.697Z,503.59
2022-11-19T12:18:18.694Z,503.61
2022-11-19T12:19:19.012Z,502.42
2022-11-19T12:20:18.704Z,502.56
2022-11-19T12:21:18.721Z,502.45
2022-11-19T12:22:18.700Z,500.99
2022-11-19T12:23:18.763Z,500.24
2022-11-19T12:24:21.588Z,500.29
2022-11-19T12:25:18.703Z,499.66
2022-11-19T12:26:18.712Z,499.47
2022-11-19T12:27:18.716Z,498.16
2022-11-19T12:28:18.715Z,497.92
2022-11-19T12:29:19.016Z,496.8
2022-11-19T12:30:18.720Z,496.94
2022-11-19T12:31:18.729Z,497.3
2022-11-19T12:32:18.723Z,496.65
2022-11-19T12:33:18.734Z,497.23